createdAt,value
2023-05-16T00:02:11.148Z,8.50
2023-05-16T00:04:38.644Z,8.60
2023-05-16T00:07:05.709Z,9.00
2023-05-16T00:09:32.756Z,9.40
2023-05-16T00:12:00.087Z,11.20
2023-05-16T00:14:28.078Z,9.50
2023-05-16T00:16:58.104Z,9.50
2023-05-16T00:19:26.335Z,9.40
2023-05-16T00:21:53.322Z,10.20
2023-05-16T00:24:20.265Z,9.50
2023-05-16T00:26:47.225Z,9.30
2023-05-16T00:29:14.307Z,10.40
2023-05-16T00:31:41.476Z,11.40
2023-05-16T00:34:08.690Z,10.30
2023-05-16T00:36:36.029Z,10.70
2023-05-16T00:39:03.951Z,11.00
2023-05-16T00:41:31.387Z,11.30
2023-05-16T00:43:58.536Z,10.90
2023-05-16T00:46:25.558Z,11.70
2023-05-16T00:48:52.787Z,10.00
2023-05-16T00:51:20.095Z,10.40
2023-05-16T00:53:48.142Z,14.00
2023-05-16T00:56:16.452Z,11.80
2023-05-16T00:58:43.880Z,11.90
2023-05-16T01:01:11.373Z,12.70
2023-05-16T01:03:39.139Z,13.30
2023-05-16T01:06:06.427Z,11.10
2023-05-16T01:08:33.665Z,12.50
2023-05-16T01:11:19.629Z,12.40
2023-05-16T01:14:21.127Z,10.30
2023-05-16T01:16:56.924Z,10.50
2023-05-16T01:19:30.719Z,15.30
2023-05-16T01:22:16.040Z,10.40
2023-05-16T01:25:17.493Z,11.10
2023-05-16T01:27:45.453Z,11.10
2023-05-16T01:30:17.706Z,12.00
2023-05-16T01:32:45.082Z,11.10
2023-05-16T01:35:15.745Z,11.60
2023-05-16T01:40:30.596Z,12.00
2023-05-16T01:43:03.969Z,11.20
2023-05-16T01:45:34.601Z,13.30
2023-05-16T01:50:36.452Z,17.50
2023-05-16T01:53:11.861Z,13.90
2023-05-16T01:55:52.133Z,13.90
2023-05-16T01:58:23.203Z,14.70
2023-05-16T02:00:53.399Z,13.40
2023-05-16T02:03:20.435Z,13.00
2023-05-16T02:05:47.534Z,13.30
2023-05-16T02:08:14.666Z,14.50
2023-05-16T02:10:41.690Z,13.00
2023-05-16T02:13:09.022Z,12.70
2023-05-16T02:15:36.116Z,16.60
2023-05-16T02:18:03.176Z,12.20
2023-05-16T02:20:30.416Z,12.90
2023-05-16T02:22:57.391Z,12.10
2023-05-16T02:25:24.708Z,14.70
2023-05-16T02:27:51.968Z,14.20
2023-05-16T02:30:19.127Z,12.40
2023-05-16T02:32:46.202Z,13.50
2023-05-16T02:35:13.359Z,15.60
2023-05-16T02:37:41.246Z,15.10
2023-05-16T02:40:08.896Z,17.20
2023-05-16T02:42:35.939Z,14.80
2023-05-16T02:45:03.091Z,17.80
2023-05-16T02:47:30.487Z,14.30
2023-05-16T02:49:57.625Z,14.90
2023-05-16T02:52:24.767Z,13.80
2023-05-16T02:55:04.754Z,15.60
2023-05-16T02:57:38.946Z,15.50
2023-05-16T03:00:06.998Z,14.30
2023-05-16T03:02:34.229Z,16.40
2023-05-16T03:05:01.540Z,14.40
2023-05-16T03:07:28.561Z,15.90
2023-05-16T03:09:55.880Z,13.20
2023-05-16T03:12:22.859Z,18.10
2023-05-16T03:14:51.342Z,15.00
2023-05-16T03:17:18.336Z,15.30
2023-05-16T03:19:45.513Z,15.40
2023-05-16T03:22:12.958Z,17.10
2023-05-16T03:24:40.026Z,16.40
2023-05-16T03:27:07.701Z,15.00
2023-05-16T03:29:34.857Z,15.30
2023-05-16T03:32:02.179Z,16.60
2023-05-16T03:34:29.286Z,15.90
2023-05-16T03:36:57.129Z,15.30
2023-05-16T03:39:24.091Z,14.50
2023-05-16T03:41:51.908Z,15.90
2023-05-16T03:44:19.039Z,13.50
2023-05-16T03:46:46.060Z,17.50
2023-05-16T03:49:13.028Z,15.40
2023-05-16T03:51:40.013Z,17.30
2023-05-16T03:54:06.985Z,17.90
2023-05-16T03:56:34.048Z,17.30
2023-05-16T03:59:01.026Z,18.00
2023-05-16T04:01:29.308Z,18.50
2023-05-16T04:03:56.326Z,16.20
2023-05-16T04:06:23.363Z,18.40
2023-05-16T04:08:50.549Z,18.60
2023-05-16T04:11:17.726Z,19.80
2023-05-16T04:13:44.966Z,17.30
2023-05-16T04:16:12.629Z,17.70
2023-05-16T04:18:39.673Z,17.10
2023-05-16T04:21:07.385Z,18.10
2023-05-16T04:23:34.530Z,15.00
2023-05-16T04:26:04.330Z,17.60
2023-05-16T04:28:31.542Z,15.10
2023-05-16T04:30:58.699Z,18.80
2023-05-16T04:33:25.862Z,17.10
2023-05-16T04:35:54.524Z,18.50
2023-05-16T04:38:22.238Z,16.20
2023-05-16T04:40:52.626Z,16.40
2023-05-16T04:43:20.023Z,14.70
2023-05-16T04:45:47.284Z,14.50
2023-05-16T04:48:15.062Z,16.80
2023-05-16T04:50:42.140Z,15.90
2023-05-16T04:53:09.664Z,16.80
2023-05-16T04:55:36.976Z,15.70
2023-05-16T04:58:04.088Z,14.20
2023-05-16T05:00:31.689Z,13.50
2023-05-16T05:02:59.725Z,14.40
2023-05-16T05:05:28.281Z,13.80
2023-05-16T05:07:59.035Z,17.60
2023-05-16T05:10:27.489Z,17.20
2023-05-16T05:12:56.351Z,14.10
2023-05-16T05:15:26.471Z,14.80
2023-05-16T05:17:53.961Z,13.00
2023-05-16T05:20:21.382Z,17.30
2023-05-16T05:22:48.473Z,14.90
2023-05-16T05:25:15.856Z,14.30
2023-05-16T05:27:45.889Z,15.60
2023-05-16T05:30:15.674Z,13.50
2023-05-16T06:07:07.726Z,17.70
2023-05-16T06:21:37.007Z,14.30
2023-05-16T06:31:47.190Z,13.10
2023-05-16T06:34:14.314Z,17.30
2023-05-16T06:36:41.615Z,14.70
2023-05-16T06:39:08.577Z,16.30
2023-05-16T06:41:36.436Z,14.00
2023-05-16T06:53:20.091Z,16.00
2023-05-16T06:56:05.863Z,14.80
2023-05-16T07:04:17.328Z,13.50
2023-05-16T07:08:30.655Z,15.50
2023-05-16T07:11:12.220Z,15.10
2023-05-16T07:13:39.396Z,16.80
2023-05-16T07:16:08.173Z,14.80
2023-05-16T07:18:35.782Z,18.50
2023-05-16T07:21:03.073Z,18.00
2023-05-16T07:23:30.640Z,18.90
2023-05-16T07:25:58.964Z,18.90
2023-05-16T07:28:26.620Z,17.40
2023-05-16T07:30:54.441Z,16.40
2023-05-16T07:33:21.730Z,15.80
2023-05-16T07:35:49.757Z,15.70
2023-05-16T07:38:16.912Z,16.10
2023-05-16T07:40:44.164Z,13.30
2023-05-16T07:43:11.374Z,14.50
2023-05-16T07:45:38.788Z,13.40
2023-05-16T07:48:06.322Z,13.40
2023-05-16T07:50:33.685Z,12.20
2023-05-16T07:53:01.401Z,12.00
2023-05-16T07:55:28.851Z,12.00
2023-05-16T07:57:56.461Z,11.40
2023-05-16T08:00:23.863Z,11.90
2023-05-16T08:02:51.638Z,12.90
2023-05-16T08:05:18.984Z,10.40
2023-05-16T08:07:46.302Z,9.70
2023-05-16T08:10:13.715Z,9.30
2023-05-16T08:12:41.193Z,10.40
2023-05-16T08:15:09.305Z,7.10
2023-05-16T08:17:36.950Z,6.10
2023-05-16T08:20:05.565Z,7.60
2023-05-16T08:22:33.368Z,6.60
2023-05-16T08:25:00.726Z,6.90
2023-05-16T08:27:28.716Z,6.10
2023-05-16T08:29:55.806Z,5.90
2023-05-16T08:32:25.344Z,7.30
2023-05-16T08:34:52.506Z,5.70
2023-05-16T08:37:19.722Z,5.60
2023-05-16T08:39:46.867Z,6.40
2023-05-16T08:42:14.772Z,5.40
2023-05-16T08:44:42.167Z,6.70
2023-05-16T08:47:18.678Z,6.20
2023-05-16T08:50:11.867Z,7.00
2023-05-16T08:56:29.366Z,6.50
2023-05-16T09:08:09.859Z,6.60
2023-05-16T09:15:58.257Z,5.60
2023-05-16T09:22:58.227Z,5.40
2023-05-16T09:25:31.752Z,5.20
2023-05-16T09:28:01.740Z,6.20
2023-05-16T09:30:32.325Z,5.70
2023-05-16T09:32:59.722Z,6.40
2023-05-16T09:35:43.266Z,5.50
2023-05-16T09:38:17.751Z,5.20
2023-05-16T09:40:46.454Z,4.30
2023-05-16T09:43:18.019Z,4.30
2023-05-16T09:45:53.944Z,5.20
2023-05-16T09:48:23.428Z,4.30
2023-05-16T09:50:54.376Z,3.90
2023-05-16T09:53:30.606Z,3.70
2023-05-16T09:56:02.060Z,3.90
2023-05-16T09:58:38.777Z,4.00
2023-05-16T10:01:13.136Z,5.30
2023-05-16T10:03:42.288Z,4.20
2023-05-16T10:06:12.572Z,3.60
2023-05-16T10:08:42.548Z,4.30
2023-05-16T10:11:10.906Z,4.30
2023-05-16T10:13:38.807Z,5.00
2023-05-16T10:16:10.989Z,4.70
2023-05-16T10:18:39.772Z,3.60
2023-05-16T10:21:15.658Z,3.60
2023-05-16T10:23:47.277Z,4.20
2023-05-16T10:26:17.103Z,3.30
2023-05-16T10:28:45.183Z,4.20
2023-05-16T10:31:14.292Z,3.70
2023-05-16T10:33:41.962Z,4.10
2023-05-16T10:36:10.561Z,6.70
2023-05-16T10:38:39.092Z,4.30
2023-05-16T10:41:08.373Z,4.90
2023-05-16T10:43:36.441Z,4.20
2023-05-16T10:46:07.167Z,4.60
2023-05-16T10:48:36.611Z,4.60
2023-05-16T10:51:24.442Z,4.90
2023-05-16T10:53:52.829Z,4.80
2023-05-16T10:56:24.796Z,4.80
2023-05-16T10:58:54.162Z,9.50
2023-05-16T11:01:28.937Z,5.00
2023-05-16T11:03:59.595Z,4.80
2023-05-16T11:06:28.364Z,3.60
2023-05-16T11:09:11.431Z,3.20
2023-05-16T11:11:46.324Z,3.60
2023-05-16T11:14:22.872Z,4.10
2023-05-16T11:17:15.433Z,3.30
2023-05-16T11:19:45.181Z,4.60
2023-05-16T11:22:41.993Z,3.30
2023-05-16T11:25:10.708Z,4.10
2023-05-16T11:27:47.026Z,4.30
2023-05-16T11:30:17.360Z,3.20
2023-05-16T11:32:46.480Z,4.50
2023-05-16T11:35:16.472Z,3.50
2023-05-16T11:37:46.512Z,4.20
2023-05-16T11:40:16.805Z,5.10
2023-05-16T11:42:47.501Z,3.70
2023-05-16T11:45:17.002Z,3.60
2023-05-16T11:47:45.932Z,3.80
2023-05-16T11:50:21.960Z,5.80
2023-05-16T11:52:54.040Z,3.40
2023-05-16T11:55:36.807Z,3.40
2023-05-16T11:58:08.456Z,3.20
2023-05-16T12:00:35.745Z,4.30
2023-05-16T12:03:05.031Z,3.90
2023-05-16T12:05:34.336Z,3.10
2023-05-16T12:08:04.337Z,3.40
2023-05-16T12:10:36.208Z,4.90
2023-05-16T12:13:03.979Z,5.20
2023-05-16T12:15:31.724Z,3.60
2023-05-16T12:17:59.320Z,10.20
2023-05-16T12:20:26.673Z,3.80
2023-05-16T12:22:57.745Z,3.70
2023-05-16T12:25:32.738Z,3.80
2023-05-16T12:28:03.914Z,4.40
2023-05-16T12:30:32.674Z,3.50
2023-05-16T12:33:08.251Z,3.70
2023-05-16T12:35:38.766Z,5.20
2023-05-16T12:38:08.429Z,4.90
2023-05-16T12:40:41.480Z,5.90
2023-05-16T12:43:22.915Z,3.90
2023-05-16T12:45:55.031Z,3.50
2023-05-16T12:48:23.871Z,4.00
2023-05-16T12:50:51.080Z,5.80
2023-05-16T12:53:19.097Z,5.00
2023-05-16T12:55:46.583Z,3.80
2023-05-16T12:58:14.125Z,5.00
2023-05-16T13:00:41.409Z,4.00
2023-05-16T13:03:10.106Z,5.20
2023-05-16T13:05:37.438Z,4.30
2023-05-16T13:08:04.965Z,4.10
2023-05-16T13:10:32.062Z,4.10
2023-05-16T13:12:59.769Z,4.30
2023-05-16T13:15:27.442Z,4.20
2023-05-16T13:17:55.065Z,8.40
2023-05-16T13:20:22.443Z,5.10
2023-05-16T13:22:49.900Z,3.60
2023-05-16T13:25:17.657Z,4.80
2023-05-16T13:27:44.813Z,4.70
2023-05-16T13:30:12.244Z,4.30
2023-05-16T13:32:39.576Z,4.60
2023-05-16T13:35:07.309Z,5.00
2023-05-16T13:37:34.874Z,5.60
2023-05-16T13:40:02.312Z,6.10
2023-05-16T13:42:29.525Z,6.90
2023-05-16T13:44:56.766Z,5.10
2023-05-16T13:47:23.836Z,6.30
2023-05-16T13:49:51.194Z,5.40
2023-05-16T13:52:18.596Z,5.90
2023-05-16T13:54:46.144Z,4.60
2023-05-16T13:57:13.321Z,5.30
2023-05-16T14:02:10.977Z,5.20
2023-05-16T14:04:38.572Z,5.40
2023-05-16T14:07:05.683Z,5.80
2023-05-16T14:09:34.772Z,5.10
2023-05-16T14:12:04.718Z,7.70
2023-05-16T14:14:31.955Z,6.00
2023-05-16T14:16:59.300Z,6.50
2023-05-16T14:19:26.776Z,5.40
2023-05-16T14:21:54.703Z,5.10
2023-05-16T14:24:22.375Z,5.40
2023-05-16T14:26:56.972Z,5.50
2023-05-16T14:29:25.009Z,5.30
2023-05-16T14:31:52.937Z,5.80
2023-05-16T14:34:21.937Z,5.50
2023-05-16T14:36:49.230Z,5.50
2023-05-16T14:39:16.378Z,4.90
2023-05-16T14:41:43.519Z,4.90
2023-05-16T14:44:10.659Z,6.30
2023-05-16T14:46:42.077Z,4.20
2023-05-16T14:49:09.758Z,7.50
2023-05-16T14:51:42.205Z,7.80
2023-05-16T14:54:22.134Z,3.70
2023-05-16T14:56:50.228Z,6.90
2023-05-16T14:59:17.390Z,4.30
2023-05-16T15:01:44.911Z,4.20
2023-05-16T15:04:12.155Z,5.20
2023-05-16T15:06:42.549Z,3.60
2023-05-16T15:09:11.668Z,6.20
2023-05-16T15:11:41.747Z,3.90
2023-05-16T15:14:12.415Z,4.10
2023-05-16T15:16:39.771Z,4.50
2023-05-16T15:19:09.578Z,6.00
2023-05-16T15:21:37.100Z,4.60
2023-05-16T15:24:04.681Z,5.50
2023-05-16T15:26:33.933Z,6.10
2023-05-16T15:29:05.788Z,3.70
2023-05-16T15:31:33.305Z,3.90
2023-05-16T15:34:01.204Z,3.60
2023-05-16T15:36:31.632Z,3.50
2023-05-16T15:39:04.900Z,4.70
2023-05-16T15:41:56.940Z,4.00
2023-05-16T15:44:23.889Z,4.40
2023-05-16T15:46:51.266Z,4.50
2023-05-16T15:49:21.926Z,4.10
2023-05-16T15:51:50.868Z,4.70
2023-05-16T15:54:18.716Z,4.00
2023-05-16T15:56:48.764Z,4.50
2023-05-16T15:59:17.040Z,4.20
2023-05-16T16:01:48.880Z,3.90
2023-05-16T16:04:23.373Z,5.40
2023-05-16T16:06:54.428Z,4.70
2023-05-16T16:09:21.659Z,4.00
2023-05-16T16:11:50.162Z,6.20
2023-05-16T16:14:19.522Z,5.00
2023-05-16T16:16:47.511Z,6.50
2023-05-16T16:19:15.294Z,4.30
2023-05-16T16:21:45.355Z,5.50
2023-05-16T16:24:15.673Z,4.30
2023-05-16T16:26:43.376Z,3.60
2023-05-16T16:29:14.908Z,5.30
2023-05-16T16:31:41.988Z,5.20
2023-05-16T16:34:09.559Z,5.90
2023-05-16T16:36:39.035Z,7.40
2023-05-16T16:39:07.532Z,4.70
2023-05-16T16:41:34.677Z,5.70
2023-05-16T16:44:02.213Z,4.80
2023-05-16T16:46:32.962Z,8.30
2023-05-16T16:49:01.588Z,4.80
2023-05-16T16:51:35.532Z,4.50
2023-05-16T16:54:05.441Z,5.30
2023-05-16T16:56:36.012Z,6.00
2023-05-16T16:59:03.240Z,7.20
2023-05-16T17:02:08.378Z,5.00
2023-05-16T17:05:23.462Z,6.00
2023-05-16T17:08:42.945Z,6.40
2023-05-16T17:12:48.595Z,4.90
2023-05-16T17:16:35.761Z,6.90
2023-05-16T17:20:03.685Z,6.00
2023-05-16T17:26:43.637Z,6.00
2023-05-16T17:29:16.812Z,6.60
2023-05-16T17:32:02.164Z,7.00
2023-05-16T17:34:32.965Z,6.30
2023-05-16T17:37:06.570Z,6.80
2023-05-16T17:39:35.078Z,8.30
2023-05-16T17:42:05.133Z,5.80
2023-05-16T17:44:32.629Z,8.30
2023-05-16T17:46:59.780Z,6.30
2023-05-16T17:49:29.999Z,4.90
2023-05-16T17:51:57.912Z,7.50
2023-05-16T17:54:26.802Z,7.20
2023-05-16T17:59:22.854Z,6.50
2023-05-16T18:01:49.951Z,7.20
2023-05-16T18:04:19.347Z,6.50
2023-05-16T18:06:48.001Z,7.90
2023-05-16T18:09:15.137Z,7.40
2023-05-16T18:11:42.234Z,7.10
2023-05-16T18:14:09.735Z,5.40
2023-05-16T18:16:36.811Z,6.40
2023-05-16T18:19:05.108Z,8.30
2023-05-16T18:22:32.315Z,7.50
2023-05-16T18:24:57.262Z,6.20
2023-05-16T18:27:24.324Z,7.80
2023-05-16T18:29:51.398Z,7.30
2023-05-16T18:32:18.587Z,9.50
2023-05-16T18:34:45.533Z,7.30
2023-05-16T18:37:12.789Z,7.50
2023-05-16T18:39:41.369Z,8.80
2023-05-16T18:42:08.634Z,9.70
2023-05-16T18:44:36.726Z,9.90
2023-05-16T18:47:03.844Z,9.70
2023-05-16T18:53:47.338Z,11.10
2023-05-16T19:00:47.663Z,10.50
2023-05-16T19:11:14.546Z,10.80
2023-05-16T19:14:39.779Z,9.80
2023-05-16T19:17:06.888Z,9.50
2023-05-16T19:23:31.480Z,10.50
2023-05-16T19:26:24.561Z,8.60
2023-05-16T19:29:12.364Z,10.10
2023-05-16T19:31:50.685Z,10.30
2023-05-16T19:34:20.126Z,10.40
2023-05-16T19:36:48.064Z,9.10
2023-05-16T19:39:18.495Z,9.00
2023-05-16T19:42:29.749Z,13.00
2023-05-16T19:48:48.343Z,11.80
2023-05-16T19:53:17.216Z,11.20
2023-05-16T19:55:41.680Z,11.30
2023-05-16T19:58:08.736Z,10.50
2023-05-16T20:00:35.772Z,12.80
2023-05-16T20:03:02.979Z,12.10
2023-05-16T20:06:03.857Z,11.50
2023-05-16T20:13:10.957Z,12.80
2023-05-16T20:34:07.414Z,11.40
2023-05-16T20:40:00.110Z,13.20
2023-05-16T20:42:42.248Z,14.50
2023-05-16T20:45:09.889Z,13.50
2023-05-16T20:47:38.183Z,14.20
2023-05-16T20:50:10.096Z,17.70
2023-05-16T20:52:37.213Z,13.30
2023-05-16T20:55:04.727Z,13.30
2023-05-16T20:57:31.774Z,13.20
2023-05-16T20:59:59.055Z,13.70
2023-05-16T21:02:26.108Z,12.20
2023-05-16T21:04:53.270Z,15.40
2023-05-16T21:07:21.707Z,12.20
2023-05-16T21:09:48.776Z,13.40
2023-05-16T21:12:15.844Z,13.70
2023-05-16T21:14:43.802Z,15.70
2023-05-16T21:17:10.859Z,15.90
2023-05-16T21:19:38.513Z,13.80
2023-05-16T21:22:05.559Z,17.20
2023-05-16T21:24:35.251Z,14.60
2023-05-16T21:27:03.766Z,14.20
2023-05-16T21:29:30.810Z,17.30
2023-05-16T21:31:58.329Z,16.10
2023-05-16T21:34:25.519Z,13.10
2023-05-16T21:36:53.440Z,13.90
2023-05-16T21:39:20.509Z,13.60
2023-05-16T21:41:47.629Z,12.50
2023-05-16T21:44:16.814Z,12.70
2023-05-16T21:46:44.452Z,15.30
2023-05-16T21:49:11.597Z,14.30
2023-05-16T21:51:39.038Z,14.50
2023-05-16T21:54:06.231Z,13.70
2023-05-16T21:56:33.283Z,13.40
2023-05-16T21:59:00.711Z,14.30
2023-05-16T22:01:29.023Z,12.70
2023-05-16T22:03:57.112Z,14.50
2023-05-16T22:06:27.493Z,15.10
2023-05-16T22:08:54.729Z,15.70
2023-05-16T22:11:21.966Z,14.40
2023-05-16T22:13:50.574Z,15.10
2023-05-16T22:16:18.076Z,15.50
2023-05-16T22:18:45.451Z,13.60
2023-05-16T22:21:12.823Z,16.20
2023-05-16T22:23:40.074Z,15.50
2023-05-16T22:26:07.219Z,15.70
2023-05-16T22:28:34.187Z,15.60
2023-05-16T22:31:01.325Z,15.90
2023-05-16T22:33:28.499Z,14.00
2023-05-16T22:35:55.784Z,15.40
2023-05-16T22:38:22.737Z,15.70
2023-05-16T22:40:49.754Z,17.60
2023-05-16T22:43:16.815Z,18.00
2023-05-16T22:45:43.856Z,16.90
2023-05-16T22:48:10.960Z,14.10
2023-05-16T22:50:38.122Z,16.50
2023-05-16T22:53:05.157Z,19.60
2023-05-16T22:55:33.538Z,17.40
2023-05-16T22:58:00.652Z,17.30
2023-05-16T23:00:27.760Z,18.50
2023-05-16T23:02:54.860Z,18.70
2023-05-16T23:05:22.049Z,18.40
2023-05-16T23:07:49.083Z,18.20
2023-05-16T23:10:16.206Z,18.20
2023-05-16T23:12:43.444Z,17.60
2023-05-16T23:15:11.002Z,21.10
2023-05-16T23:17:38.312Z,19.80
2023-05-16T23:20:07.093Z,21.30
2023-05-16T23:22:34.175Z,19.90
2023-05-16T23:25:01.237Z,21.50
2023-05-16T23:27:28.387Z,23.80
2023-05-16T23:29:55.418Z,20.80
2023-05-16T23:32:23.086Z,22.50
2023-05-16T23:34:50.048Z,24.30
2023-05-16T23:37:17.002Z,24.30
2023-05-16T23:39:43.989Z,23.60
2023-05-16T23:42:11.103Z,27.70
2023-05-16T23:44:41.417Z,24.30
2023-05-16T23:47:08.566Z,25.40
2023-05-16T23:49:35.669Z,24.30
2023-05-16T23:52:05.536Z,22.50
2023-05-16T23:54:33.822Z,25.50
2023-05-16T23:57:00.929Z,24.70
2023-05-16T23:59:28.066Z,23.20
